Bryce Canyon Airport Bryce Canyon US
ICAO: KBCE
IATA: BCE
Category: Medium
Scheduled Services: No

Elevation: 7590 ft
TransAlt. 18000 ft.

Airport Communications:
ASOS:135.475
CEDAR CITY RDO:122.2
CTAF/UNICOM:122.8

KBCE Zoom In..

Runways:

(A) RW 03 length 7395 ft width 75 ft
---- / hdg 33

(B) RW 21 length 7395 ft width 75 ft
---- / hdg 213

Location; KBCE
Day. 21 / Time. 23.53 Zulu
* Altimeter: 30.12
* Temperature: -07° c. -19.4°f.
* Wind from: 320° Speed 15 kn.
Dewpoint: -11° c.
Visibility: 10 Statute Miles.
Clouds: Clear (automated report).

KBCE 212353Z AUTO 32015KT 10SM CLR M07/M11 A3012 RMK AO2 SNE11 SLP220 P0000 60000 T10671111 11044 21067 51016


Wind From 320°
Speed 15 kn.

jpsM music video
CHECK IT OUT

jpsM - It Moves..

 
jpsmedia.com for Web Design  worldairports.se 2018   terms of use